createdAt,value
2022-07-30T00:00:38.954Z,2.72
2022-07-30T00:03:07.401Z,3.40
2022-07-30T00:09:18.355Z,3.25
2022-07-30T00:11:46.565Z,3.47
2022-07-30T00:14:14.716Z,3.03
2022-07-30T00:16:42.982Z,3.33
2022-07-30T00:19:29.695Z,2.90
2022-07-30T00:21:58.479Z,2.92
2022-07-30T00:24:26.702Z,3.13
2022-07-30T00:26:54.906Z,3.05
2022-07-30T00:29:23.219Z,3.38
2022-07-30T00:31:52.582Z,2.40
2022-07-30T00:34:20.771Z,3.58
2022-07-30T00:36:48.977Z,3.17
2022-07-30T00:39:17.156Z,3.47
2022-07-30T00:41:55.846Z,3.47
2022-07-30T00:44:24.282Z,3.10
2022-07-30T00:46:53.404Z,3.30
2022-07-30T00:52:07.763Z,3.55
2022-07-30T00:54:36.179Z,4.13
2022-07-30T00:57:04.561Z,5.03
2022-07-30T00:59:32.714Z,6.10
2022-07-30T01:02:01.970Z,6.50
2022-07-30T01:04:31.383Z,6.60
2022-07-30T01:06:59.796Z,6.55
2022-07-30T01:09:28.281Z,6.72
2022-07-30T01:11:56.910Z,5.60
2022-07-30T01:14:25.387Z,4.95
2022-07-30T01:16:53.776Z,5.15
2022-07-30T01:19:48.672Z,5.95
2022-07-30T01:22:30.762Z,5.80
2022-07-30T01:25:34.028Z,4.30
2022-07-30T01:28:14.356Z,4.45
2022-07-30T01:31:07.126Z,5.30
2022-07-30T01:33:42.623Z,5.00
2022-07-30T01:36:48.502Z,4.88
2022-07-30T01:39:36.346Z,5.28
2022-07-30T01:42:07.749Z,4.63
2022-07-30T01:47:25.856Z,5.20
2022-07-30T01:49:55.081Z,4.78
2022-07-30T01:52:24.903Z,4.88
2022-07-30T01:54:56.898Z,3.75
2022-07-30T01:57:26.259Z,4.25
2022-07-30T02:00:02.165Z,4.03
2022-07-30T02:02:45.992Z,4.22
2022-07-30T02:05:16.043Z,5.25
2022-07-30T02:08:06.543Z,4.00
2022-07-30T02:10:46.301Z,4.20
2022-07-30T02:14:02.193Z,4.70
2022-07-30T02:22:17.263Z,4.13
2022-07-30T02:24:49.644Z,3.78
2022-07-30T02:27:25.217Z,4.20
2022-07-30T02:29:56.089Z,4.57
2022-07-30T02:32:26.934Z,4.07
2022-07-30T02:35:02.172Z,4.25
2022-07-30T02:37:42.867Z,3.80
2022-07-30T02:40:18.313Z,3.65
2022-07-30T02:42:49.258Z,2.65
2022-07-30T02:45:22.845Z,2.58
2022-07-30T02:47:55.545Z,2.70
2022-07-30T02:50:25.263Z,2.50
2022-07-30T02:55:42.903Z,2.33
2022-07-30T02:58:16.073Z,2.45
2022-07-30T03:00:44.940Z,2.53
2022-07-30T03:03:50.639Z,2.35
2022-07-30T03:06:20.247Z,2.50
2022-07-30T03:08:49.051Z,3.28
2022-07-30T03:11:21.108Z,3.08
2022-07-30T03:16:39.138Z,2.50
2022-07-30T03:19:10.511Z,3.40
2022-07-30T03:21:42.130Z,3.65
2022-07-30T03:24:13.583Z,3.42
2022-07-30T03:26:43.247Z,3.42
2022-07-30T03:29:13.227Z,3.83
2022-07-30T03:31:43.058Z,3.55
2022-07-30T03:37:20.199Z,3.47
2022-07-30T03:39:48.886Z,2.65
2022-07-30T03:45:06.899Z,3.28
2022-07-30T03:47:38.108Z,2.75
2022-07-30T03:50:07.011Z,2.90
2022-07-30T03:52:40.929Z,2.72
2022-07-30T03:55:12.997Z,3.08
2022-07-30T03:57:47.213Z,2.63
2022-07-30T04:00:17.474Z,2.70
2022-07-30T04:02:50.944Z,2.60
2022-07-30T04:05:19.262Z,3.08
2022-07-30T04:08:26.162Z,2.88
2022-07-30T04:10:55.624Z,3.75
2022-07-30T04:13:42.614Z,4.75
2022-07-30T04:16:39.756Z,6.38
2022-07-30T04:19:15.720Z,5.30
2022-07-30T04:21:47.473Z,5.50
2022-07-30T04:24:17.813Z,4.20
2022-07-30T04:26:47.998Z,4.68
2022-07-30T04:29:21.370Z,4.43
2022-07-30T04:32:12.342Z,3.92
2022-07-30T04:34:58.080Z,4.38
2022-07-30T04:37:55.177Z,3.20
2022-07-30T04:40:23.481Z,3.53
2022-07-30T04:42:52.004Z,3.55
2022-07-30T04:45:20.609Z,3.05
2022-07-30T04:48:07.510Z,2.30
2022-07-30T04:50:57.910Z,2.80
2022-07-30T04:53:27.986Z,1.80
2022-07-30T04:55:59.905Z,2.75
2022-07-30T04:58:31.545Z,2.58
2022-07-30T05:03:48.028Z,3.05
2022-07-30T05:06:17.977Z,2.88
2022-07-30T05:09:04.957Z,4.03
2022-07-30T05:11:34.218Z,3.10
2022-07-30T05:14:22.232Z,3.47
2022-07-30T05:17:08.885Z,3.20
2022-07-30T05:19:37.169Z,3.60
2022-07-30T05:22:06.876Z,3.70
2022-07-30T05:24:35.462Z,3.63
2022-07-30T05:27:03.877Z,3.38
2022-07-30T05:29:32.207Z,3.90
2022-07-30T05:32:11.331Z,2.83
2022-07-30T05:34:39.667Z,2.72
2022-07-30T05:37:09.885Z,3.28
2022-07-30T05:39:40.923Z,3.22
2022-07-30T05:42:53.020Z,2.63
2022-07-30T05:45:21.483Z,2.42
2022-07-30T05:47:49.929Z,2.55
2022-07-30T05:50:18.752Z,2.00
2022-07-30T05:52:46.727Z,1.58
2022-07-30T05:55:37.853Z,1.48
2022-07-30T05:58:29.041Z,2.10
2022-07-30T06:00:57.022Z,2.03
2022-07-30T06:03:28.886Z,2.13
2022-07-30T06:06:29.230Z,1.98
2022-07-30T06:08:57.398Z,2.75
2022-07-30T06:11:25.593Z,2.45
2022-07-30T06:13:53.736Z,2.42
2022-07-30T06:16:21.923Z,2.17
2022-07-30T06:18:50.078Z,2.50
2022-07-30T06:21:28.808Z,2.47
2022-07-30T06:24:18.119Z,2.30
2022-07-30T06:27:01.011Z,1.92
2022-07-30T06:29:29.414Z,2.03
2022-07-30T06:31:58.185Z,2.60
2022-07-30T06:34:26.159Z,2.08
2022-07-30T06:36:54.388Z,2.40
2022-07-30T06:39:57.457Z,2.00
2022-07-30T06:42:34.220Z,1.67
2022-07-30T06:45:22.606Z,1.27
2022-07-30T06:48:09.560Z,1.30
2022-07-30T06:50:37.782Z,1.40
2022-07-30T06:53:07.153Z,1.70
2022-07-30T06:56:00.272Z,1.65
2022-07-30T06:58:36.127Z,1.85
2022-07-30T07:01:23.803Z,1.40
2022-07-30T07:03:53.561Z,2.08
2022-07-30T07:06:21.574Z,2.22
2022-07-30T07:08:49.638Z,1.98
2022-07-30T07:11:23.130Z,2.63
2022-07-30T07:13:55.376Z,1.95
2022-07-30T07:16:33.239Z,1.77
2022-07-30T07:19:10.900Z,2.25
2022-07-30T07:21:42.334Z,2.30
2022-07-30T07:24:12.346Z,1.92
2022-07-30T07:27:15.477Z,1.98
2022-07-30T07:30:05.580Z,2.28
2022-07-30T07:32:36.969Z,2.30
2022-07-30T07:35:06.561Z,2.33
2022-07-30T07:37:36.848Z,1.80
2022-07-30T07:40:07.925Z,2.25
2022-07-30T07:42:40.820Z,1.85
2022-07-30T07:45:09.348Z,2.63
2022-07-30T07:47:51.824Z,2.10
2022-07-30T07:50:42.310Z,2.25
2022-07-30T07:53:18.057Z,2.08
2022-07-30T07:55:46.440Z,2.47
2022-07-30T07:58:14.683Z,2.35
2022-07-30T08:00:48.179Z,2.47
2022-07-30T08:03:17.362Z,2.20
2022-07-30T08:06:00.812Z,2.03
2022-07-30T08:08:56.715Z,2.30
2022-07-30T08:12:03.460Z,2.58
2022-07-30T08:14:50.325Z,2.00
2022-07-30T08:17:48.062Z,1.85
2022-07-30T08:20:19.456Z,2.30
2022-07-30T08:22:47.427Z,2.30
2022-07-30T08:25:24.319Z,1.60
2022-07-30T08:30:59.142Z,1.85
2022-07-30T08:33:30.165Z,1.58
2022-07-30T08:36:03.205Z,1.67
2022-07-30T08:38:33.872Z,2.10
2022-07-30T08:41:02.591Z,2.17
2022-07-30T08:43:31.429Z,1.73
2022-07-30T08:46:01.005Z,1.80
2022-07-30T08:48:59.867Z,1.70
2022-07-30T08:51:36.450Z,1.65
2022-07-30T08:54:34.191Z,1.63
2022-07-30T08:57:02.875Z,1.60
2022-07-30T09:02:27.569Z,1.63
2022-07-30T09:05:06.861Z,2.22
2022-07-30T09:07:36.066Z,1.40
2022-07-30T09:10:06.847Z,1.40
2022-07-30T09:12:44.707Z,1.30
2022-07-30T09:15:32.122Z,1.42
2022-07-30T09:20:48.566Z,1.58
2022-07-30T09:23:17.959Z,1.58
2022-07-30T09:26:23.036Z,2.10
2022-07-30T09:29:30.981Z,1.98
2022-07-30T09:32:17.597Z,2.00
2022-07-30T09:35:15.580Z,1.92
2022-07-30T09:38:06.701Z,1.60
2022-07-30T09:41:29.316Z,2.08
2022-07-30T09:44:10.142Z,2.40
2022-07-30T09:46:51.162Z,1.85
2022-07-30T09:49:29.582Z,1.85
2022-07-30T09:51:58.171Z,1.50
2022-07-30T09:54:52.853Z,1.80
2022-07-30T09:57:27.327Z,1.52
2022-07-30T10:00:42.308Z,1.85
2022-07-30T10:06:38.102Z,1.60
2022-07-30T10:09:31.888Z,1.45
2022-07-30T10:12:10.377Z,1.55
2022-07-30T10:15:02.039Z,1.50
2022-07-30T10:17:34.925Z,1.73
2022-07-30T10:20:27.293Z,1.50
2022-07-30T10:24:46.553Z,1.65
2022-07-30T10:26:08.809Z,2.00
2022-07-30T10:28:43.780Z,1.13
2022-07-30T10:31:47.082Z,1.40
2022-07-30T10:34:00.863Z,1.65
2022-07-30T10:36:30.282Z,1.90
2022-07-30T10:38:58.776Z,1.50
2022-07-30T10:41:53.946Z,1.90
2022-07-30T10:44:40.877Z,1.60
2022-07-30T10:47:14.368Z,1.90
2022-07-30T10:49:43.416Z,1.98
2022-07-30T10:52:12.291Z,2.28
2022-07-30T10:54:47.644Z,2.15
2022-07-30T10:57:31.667Z,1.83
2022-07-30T11:00:01.145Z,1.70
2022-07-30T11:02:35.837Z,2.00
2022-07-30T11:05:27.318Z,1.83
2022-07-30T11:08:36.210Z,2.45
2022-07-30T11:11:59.163Z,2.10
2022-07-30T11:16:38.776Z,2.10
2022-07-30T11:19:55.015Z,1.50
2022-07-30T11:22:31.642Z,2.25
2022-07-30T11:25:04.420Z,1.38
2022-07-30T11:27:46.830Z,1.70
2022-07-30T11:30:17.378Z,1.73
2022-07-30T11:32:48.300Z,1.40
2022-07-30T11:35:34.427Z,1.38
2022-07-30T11:38:09.241Z,2.20
2022-07-30T11:40:42.299Z,1.58
2022-07-30T11:43:20.342Z,1.58
2022-07-30T11:46:16.222Z,1.60
2022-07-30T11:48:59.118Z,1.52
2022-07-30T11:51:27.504Z,1.85
2022-07-30T11:54:06.722Z,1.52
2022-07-30T11:56:35.283Z,2.13
2022-07-30T11:59:08.680Z,2.03
2022-07-30T12:01:36.952Z,2.10
2022-07-30T12:04:06.464Z,2.60
2022-07-30T12:06:36.703Z,2.80
2022-07-30T12:09:04.909Z,2.30
2022-07-30T12:11:35.030Z,2.40
2022-07-30T12:14:04.334Z,5.38
2022-07-30T12:16:33.568Z,2.00
2022-07-30T12:19:06.098Z,1.88
2022-07-30T12:21:34.452Z,1.40
2022-07-30T12:24:04.967Z,1.75
2022-07-30T12:29:20.383Z,1.60
2022-07-30T12:31:48.574Z,2.05
2022-07-30T12:34:22.099Z,1.73
2022-07-30T12:36:50.291Z,2.47
2022-07-30T12:39:26.867Z,2.13
2022-07-30T12:41:59.012Z,1.80
2022-07-30T12:44:41.778Z,2.00
2022-07-30T12:47:34.158Z,2.20
2022-07-30T12:50:04.115Z,1.90
2022-07-30T12:52:36.065Z,1.90
2022-07-30T12:55:12.505Z,2.40
2022-07-30T12:57:56.200Z,1.95
2022-07-30T13:00:32.398Z,2.28
2022-07-30T13:03:00.735Z,2.45
2022-07-30T13:05:44.963Z,1.88
2022-07-30T13:08:13.124Z,1.90
2022-07-30T13:11:00.118Z,1.60
2022-07-30T13:13:29.703Z,2.30
2022-07-30T13:15:59.829Z,2.22
2022-07-30T13:18:29.867Z,1.63
2022-07-30T13:20:58.805Z,1.70
2022-07-30T13:23:30.351Z,1.95
2022-07-30T13:25:59.123Z,2.55
2022-07-30T13:28:28.166Z,1.95
2022-07-30T13:30:57.421Z,1.95
2022-07-30T13:33:25.999Z,2.10
2022-07-30T13:35:56.826Z,2.30
2022-07-30T13:38:25.026Z,1.90
2022-07-30T13:40:53.405Z,1.98
2022-07-30T13:43:21.891Z,1.98
2022-07-30T13:45:50.816Z,2.42
2022-07-30T13:48:19.369Z,2.60
2022-07-30T13:50:47.393Z,1.77
2022-07-30T13:53:15.423Z,2.35
2022-07-30T13:55:43.506Z,2.40
2022-07-30T13:58:11.474Z,1.63
2022-07-30T14:00:40.681Z,1.77
2022-07-30T14:03:11.452Z,1.80
2022-07-30T14:06:10.390Z,1.92
2022-07-30T14:08:39.858Z,2.13
2022-07-30T14:11:08.521Z,2.10
2022-07-30T14:13:36.621Z,2.13
2022-07-30T14:16:10.691Z,2.15
2022-07-30T14:18:46.507Z,2.17
2022-07-30T14:21:15.051Z,1.70
2022-07-30T14:23:43.140Z,2.00
2022-07-30T14:26:11.171Z,2.00
2022-07-30T14:28:39.143Z,2.15
2022-07-30T14:31:07.115Z,1.95
2022-07-30T14:33:35.284Z,2.30
2022-07-30T14:36:22.652Z,2.10
2022-07-30T14:38:54.022Z,1.77
2022-07-30T14:41:26.554Z,1.85
2022-07-30T14:43:54.626Z,1.95
2022-07-30T14:46:23.165Z,2.13
2022-07-30T14:48:51.188Z,1.92
2022-07-30T14:51:24.339Z,2.30
2022-07-30T14:53:54.066Z,2.35
2022-07-30T14:56:24.326Z,1.92
2022-07-30T14:58:53.317Z,2.40
2022-07-30T15:01:21.498Z,1.90
2022-07-30T15:03:49.643Z,2.50
2022-07-30T15:06:17.870Z,1.90
2022-07-30T15:08:46.812Z,2.05
2022-07-30T15:11:15.140Z,1.65
2022-07-30T15:13:50.521Z,2.22
2022-07-30T15:16:19.391Z,2.05
2022-07-30T15:18:47.610Z,2.15
2022-07-30T15:21:15.883Z,2.00
2022-07-30T15:23:43.953Z,2.00
2022-07-30T15:26:12.049Z,2.60
2022-07-30T15:28:40.144Z,2.30
2022-07-30T15:31:08.741Z,2.45
2022-07-30T15:33:37.476Z,1.95
2022-07-30T15:36:06.425Z,2.58
2022-07-30T15:38:34.470Z,2.10
2022-07-30T15:41:02.681Z,2.40
2022-07-30T15:43:30.713Z,2.45
2022-07-30T15:45:58.801Z,2.20
2022-07-30T15:48:27.930Z,2.75
2022-07-30T15:51:02.911Z,2.88
2022-07-30T15:53:33.909Z,2.50
2022-07-30T15:56:01.927Z,2.00
2022-07-30T15:58:29.927Z,2.03
2022-07-30T16:00:58.255Z,2.75
2022-07-30T16:03:26.351Z,2.53
2022-07-30T16:05:54.499Z,2.10
2022-07-30T16:08:22.640Z,2.40
2022-07-30T16:11:10.890Z,2.25
2022-07-30T16:13:39.284Z,2.17
2022-07-30T16:16:07.288Z,2.15
2022-07-30T16:18:35.308Z,2.60
2022-07-30T16:21:03.426Z,2.20
2022-07-30T16:23:36.355Z,2.05
2022-07-30T16:26:05.883Z,2.47
2022-07-30T16:28:33.987Z,2.60
2022-07-30T16:31:01.972Z,2.22
2022-07-30T16:33:30.057Z,2.13
2022-07-30T16:35:58.116Z,2.15
2022-07-30T16:38:26.161Z,2.03
2022-07-30T16:43:39.864Z,1.83
2022-07-30T16:46:07.969Z,1.90
2022-07-30T16:48:36.022Z,2.20
2022-07-30T16:51:04.262Z,2.10
2022-07-30T16:53:32.302Z,2.25
2022-07-30T16:56:00.399Z,2.72
2022-07-30T16:58:30.765Z,2.55
2022-07-30T17:00:59.322Z,2.60
2022-07-30T17:03:27.521Z,2.95
2022-07-30T17:05:55.703Z,2.63
2022-07-30T17:08:24.826Z,2.70
2022-07-30T17:10:54.290Z,2.60
2022-07-30T17:13:25.379Z,2.22
2022-07-30T17:15:53.646Z,2.22
2022-07-30T17:18:21.725Z,2.40
2022-07-30T17:20:51.961Z,2.30
2022-07-30T17:23:19.970Z,2.75
2022-07-30T17:25:47.994Z,2.40
2022-07-30T17:28:18.342Z,2.60
2022-07-30T17:31:07.718Z,2.33
2022-07-30T17:33:35.740Z,2.50
2022-07-30T17:36:03.976Z,2.10
2022-07-30T17:38:32.040Z,2.15
2022-07-30T17:41:00.439Z,2.58
2022-07-30T17:43:28.516Z,1.98
2022-07-30T17:45:57.181Z,2.80
2022-07-30T17:48:25.282Z,2.92
2022-07-30T17:50:53.303Z,2.10
2022-07-30T17:53:21.375Z,2.50
2022-07-30T17:55:57.030Z,2.15
2022-07-30T17:58:27.138Z,2.55
2022-07-30T18:00:56.030Z,2.70
2022-07-30T18:03:24.672Z,2.25
2022-07-30T18:05:52.850Z,2.42
2022-07-30T18:08:21.165Z,2.33
2022-07-30T18:10:50.466Z,2.33
2022-07-30T18:13:26.131Z,2.60
2022-07-30T18:16:13.995Z,1.90
2022-07-30T18:18:42.133Z,2.45
2022-07-30T18:21:10.235Z,2.67
2022-07-30T18:23:38.311Z,2.53
2022-07-30T18:26:06.382Z,2.33
2022-07-30T18:28:34.911Z,2.28
2022-07-30T18:31:03.222Z,2.03
2022-07-30T18:33:31.373Z,2.22
2022-07-30T18:35:59.491Z,2.78
2022-07-30T18:38:27.621Z,2.45
2022-07-30T18:40:58.369Z,2.88
2022-07-30T18:43:30.794Z,2.67
2022-07-30T18:46:17.402Z,2.83
2022-07-30T18:48:47.313Z,2.60
2022-07-30T18:51:15.582Z,2.63
2022-07-30T18:53:43.607Z,2.92
2022-07-30T18:56:11.560Z,2.30
2022-07-30T18:58:39.773Z,2.70
2022-07-30T19:01:07.876Z,3.00
2022-07-30T19:03:35.958Z,3.13
2022-07-30T19:06:04.196Z,2.40
2022-07-30T19:08:32.264Z,2.55
2022-07-30T19:11:00.556Z,2.17
2022-07-30T19:13:28.646Z,2.40
2022-07-30T19:15:56.801Z,2.67
2022-07-30T19:18:25.412Z,2.40
2022-07-30T19:20:53.507Z,2.97
2022-07-30T19:23:21.614Z,2.42
2022-07-30T19:26:08.050Z,3.03
2022-07-30T19:28:36.613Z,2.42
2022-07-30T19:31:05.336Z,2.72
2022-07-30T19:33:33.369Z,2.35
2022-07-30T19:36:03.142Z,2.45
2022-07-30T19:38:31.215Z,2.90
2022-07-30T19:40:59.400Z,2.80
2022-07-30T19:43:28.607Z,3.15
2022-07-30T19:45:58.462Z,3.10
2022-07-30T19:48:29.455Z,2.80
2022-07-30T19:53:46.521Z,2.60
2022-07-30T19:56:14.668Z,3.42
2022-07-30T19:58:42.710Z,3.35
2022-07-30T20:01:12.800Z,3.72
2022-07-30T20:04:01.909Z,3.00
2022-07-30T20:06:30.062Z,4.07
2022-07-30T20:08:58.063Z,2.85
2022-07-30T20:11:36.156Z,3.00
2022-07-30T20:14:05.208Z,3.15
2022-07-30T20:16:33.314Z,2.97
2022-07-30T20:19:03.281Z,2.92
2022-07-30T20:21:56.351Z,3.13
2022-07-30T20:24:22.067Z,3.78
2022-07-30T20:26:50.114Z,4.25
2022-07-30T20:29:19.454Z,3.38
2022-07-30T20:31:49.906Z,3.75
2022-07-30T20:34:23.626Z,3.33
2022-07-30T20:36:56.685Z,3.10
2022-07-30T20:39:26.194Z,2.72
2022-07-30T20:42:12.700Z,3.42
2022-07-30T20:44:50.556Z,3.42
2022-07-30T20:47:34.785Z,3.10
2022-07-30T20:50:11.527Z,2.78
2022-07-30T20:52:46.557Z,3.03
2022-07-30T20:55:17.029Z,3.30
2022-07-30T20:58:00.367Z,3.08
2022-07-30T21:00:35.110Z,3.00
2022-07-30T21:03:04.136Z,2.97
2022-07-30T21:05:32.607Z,2.90
2022-07-30T21:08:00.750Z,2.40
2022-07-30T21:10:28.921Z,3.38
2022-07-30T21:12:58.468Z,3.30
2022-07-30T21:15:36.383Z,3.45
2022-07-30T21:18:13.816Z,3.40
2022-07-30T21:20:41.987Z,3.08
2022-07-30T21:23:20.742Z,3.15
2022-07-30T21:26:00.834Z,2.80
2022-07-30T21:31:58.037Z,3.88
2022-07-30T21:34:09.222Z,4.43
2022-07-30T21:36:37.414Z,2.88
2022-07-30T21:39:06.263Z,3.13
2022-07-30T21:41:40.279Z,3.10
2022-07-30T21:44:09.809Z,3.10
2022-07-30T21:46:38.253Z,3.20
2022-07-30T21:49:08.061Z,3.10
2022-07-30T21:51:36.702Z,2.95
2022-07-30T21:54:07.220Z,3.33
2022-07-30T21:56:54.024Z,3.70
2022-07-30T21:59:42.925Z,3.20
2022-07-30T22:02:29.268Z,3.15
2022-07-30T22:04:59.073Z,2.95
2022-07-30T22:07:27.383Z,3.30
2022-07-30T22:10:14.046Z,3.00
2022-07-30T22:12:50.008Z,3.30
2022-07-30T22:15:19.383Z,4.10
2022-07-30T22:18:00.493Z,3.30
2022-07-30T22:20:30.627Z,3.08
2022-07-30T22:23:01.499Z,2.78
2022-07-30T22:25:39.642Z,3.28
2022-07-30T22:28:13.643Z,3.92
2022-07-30T22:30:42.537Z,3.28
2022-07-30T22:33:18.827Z,3.47
2022-07-30T22:35:49.830Z,3.28
2022-07-30T22:38:19.601Z,3.53
2022-07-30T22:40:49.545Z,3.55
2022-07-30T22:43:17.746Z,3.70
2022-07-30T22:45:49.914Z,3.92
2022-07-30T22:48:36.884Z,3.42
2022-07-30T22:51:06.570Z,3.45
2022-07-30T22:54:02.835Z,4.22
2022-07-30T22:56:46.930Z,3.55
2022-07-30T22:59:15.511Z,4.20
2022-07-30T23:01:44.076Z,3.63
2022-07-30T23:04:12.890Z,4.30
2022-07-30T23:06:43.304Z,3.72
2022-07-30T23:09:30.669Z,4.10
2022-07-30T23:12:32.267Z,2.53
2022-07-30T23:12:36.259Z,4.18
2022-07-30T23:15:23.807Z,3.75
2022-07-30T23:17:52.230Z,4.35
2022-07-30T23:20:39.231Z,4.07
2022-07-30T23:23:07.504Z,3.78
2022-07-30T23:25:38.671Z,3.53
2022-07-30T23:28:25.558Z,4.45
2022-07-30T23:31:30.570Z,3.95
2022-07-30T23:34:17.446Z,3.78
2022-07-30T23:36:45.571Z,3.67
2022-07-30T23:39:32.782Z,5.07
2022-07-30T23:42:00.979Z,5.60
2022-07-30T23:44:29.128Z,4.05
2022-07-30T23:46:57.368Z,4.45
2022-07-30T23:49:25.543Z,3.97
2022-07-30T23:51:54.450Z,3.95
2022-07-30T23:54:22.705Z,3.95
2022-07-30T23:56:55.369Z,3.78
2022-07-30T23:59:24.372Z,3.50
